Airfield :







YOU CAN JOIN US ON...

 
LOGIN :

Register | Disclaimer

   EN    FR    IT 

 









Legend :    VFR   Marginal VFR   IFR   Intensive IFR   Very Intensive IFR
Visi :
Ceiling :
>= 8 km
>= 3000ft
5 to 8 km
1000 to 3000 ft
1500m to 5 km
500 to 1000 ft
800 to 1500m
200 to 500 ft
< 800m
< 200 ft
Symbols :   Thunderstorms  Fog  Heavy snow  Heavy precipitations  Wind > 20 kt






- Airport Elevation : 110 ft
- IATA code : YFB


CYFB - Iqaluit

CURRENT METAR :
  • 200800Z 12004KT 15SM SKC M04/M08 A3019 RMK SLP227

EXPIRED METARs :
  • 200700Z 11004KT 15SM FEW250 M04/M08 A3018 RMK CI1 CI TR SLP226
  • 200600Z 12007KT 15SM FEW250 M03/M07 A3018 RMK CI1 CI TR SLP224

TAF TAF CYFB
Valid from the 20 at 06:00 until the 21 at 06:00 UTC


200538Z 2006/2106 11005KT P6SM FEW015 SCT250
FM200700 09005KT P6SM SCT015 BKN030
TEMPO 2007/2014 BKN015 OVC030
BECMG 2012/2014 15010KT
FM201400 15010KT P6SM SCT008 BKN015 OVC030
TEMPO 2014/2106 4SM -SN BKN008 OVC015 RMK NXT FCST BY 201200Z



MET'MAP, your aeronautical weather chart ! - Copyright ORBIFLY December 2007 - Disclaimer

ORBIFLY MET'MAP TEAM :

Programming & Development : Alexandra Zaïnal
Concept & Development : Baudouin d'Aumeries
Co-Development & Prog : Marc-Olivier Méhu
Technical & hardware support : Manuel Goepfert

Contact : metmap@orbifly.com




SOURCES & CREDITS :

   NOAA